aviador You're here:

KFLO Decoded Metar

FLORENCE in SC, USA
Report Time2017-09-24 22:53:00
UTC Time2017-09-24 23:08:07
Flight Rules vfr VFR
Wind040° at 05 kt
W.Decomp.*RWY 01: 4.1 kt HW 2.9 kt RCW
RWY 09: 3.5 kt HW 3.5 kt LCW
W.Rank040° ranks 4
Current wind is below 040° avg. (7.0)
Visibility9999 m
Phenomena:N/A
Clouds:N/A
Expected CloudBase > 2,400 ft AGL from Temp-Dew spread
CeilingNone
Temp27°C (ISA +12)
Dew Point21°C (70% RH)
Heat Index28.9°C
QNH1015 hPa
Density Alt1,821 ft
Elevation144 ft
Report Wrong Elevation
Raw Report
KFLO 242253Z 04005KT 10SM CLR 27/21 A2998 RMK AO2 SLP148
T02670206=

Extra information for KFLO:More info

Metar Taf Metar & Taf Last 4 Metars F.Rules Stats Wind Profile Meteogram Temp Stats Airport Information Weather charts Add Link Nearby VenuesMetar ALERT Operation Metar Decoded Social comments

AIRNAV info for KFLO